Portsmouth, NH

12:49 PM EDT on September 05, 2015 (GMT -0400)
Pease International Tradeport | | Change Station
CLOSE
Current Station
Airport
Location: Portsmouth,
Elevation: 102 ft
Nearby Weather Stations

Elev 102 ft 43.08 °N, 70.82 °W | Updated 51 minutes ago

Scattered Clouds
Scattered Clouds
75 °F
Feels Like 75 °F
N
4
Wind Variable Wind from Variable

Today
High -- | Low -- °F
--% Chance of Precip.
Yesterday
High -- | Low -- °F
Precip. -- in
6:11 AM 7:11 PM
Waning Gibbous, 47% visible
Pressure 30.27 in
Visibility 10.0 miles
Clouds Scattered Clouds 25000 ft
Dew Point 53 °F
Humidity 46%
Rainfall 0.00 in
Snow Depth Not available.
UV 6 out of 12
Pollen 7.30 out of 12
Air Quality Not available.
Flu Activity Not available.
METAR KPSM 051558Z VRB03KT 10SM SCT250 24/12 A3026 RMK AO2A SLP249 T02400117
Pressure 30.27 in
Visibility 10.0 miles
Clouds Scattered Clouds 25000 ft
Dew Point 53 °F
Humidity 46%
Rainfall 0.00 in
Snow Depth Not available.
UV 6 out of 12
Pollen 7.30 out of 12
Air Quality Not available.
Flu Activity Not available.
METAR KPSM 051558Z VRB03KT 10SM SCT250 24/12 A3026 RMK AO2A SLP249 T02400117

10-Day Weather Forecast

×

Almanac

Astronomy

Sep. 05, 2015 Rise Set
Actual Time
Civil Twilight
Nautical Twilight
Astronomical Twilight
Moon
Length of Visible Light
Length of Day
Tomorrow will be .
, % of the Moon is Illuminated

Today's Extremes

State Highs State Lows

Community

WunderPhotos

Upload Photos

1,852,498 photos uploaded!

WunderBlogs® & News

Nearby

Air Quality

  Air Quality AQ Index Pollutant
Not available.

Snow Depth

Station Depth Elevation

Earthquake Activity

City Distance Mag. Time & Date
Minimum magnitude displayed is 2.5.

Coastal Water Temperatures

Place Temperature

Stations

Nearby Weather Stations

Station Location Temp. Windchill Dew Point Humidity Wind Precip. Elev Updated Type